Stations météo

réclame
Mon MeteoGroup
Cerezo De Arriba, Espagne (8143): Température de l'air & dewpoint: 18.01.2018 10:00:00 - 24.01.2018 10:00:00 (CET)Cerezo De Arriba, Espagne (8143): Vitesse du vent & gusts: 18.01.2018 10:00:00 - 24.01.2018 10:00:00 (CET)Cerezo De Arriba, Espagne (8143): Direction du vent: 18.01.2018 10:00:00 - 24.01.2018 10:00:00 (CET)Cerezo De Arriba, Espagne (8143): visibility: 18.01.2018 10:00:00 - 24.01.2018 10:00:00 (CET)Cerezo De Arriba, Espagne (8143): Ensoleillement: 18.01.2018 10:00:00 - 24.01.2018 10:00:00 (CET)Cerezo De Arriba, Espagne (8143): Quantités de précipitations: 18.01.2018 10:00:00 - 24.01.2018 10:00:00 (CET)
Date & Time tt [°C] td [°C] ff [km/h] ff [knt] fx [km/h] fx [knt] dd vv [km] sd [min] rr [mm]
24.01.2018 10:00:00 7,3 -12,4 9 5 33 18 SE 20 0 0,0
24.01.2018 09:00:00 - - - - - - - - - -
24.01.2018 08:00:00 6,9 -12,7 28 15 35 19 S 20 0 0,0
24.01.2018 07:00:00 5,8 -10,8 24 13 48 26 S 20 0 -
24.01.2018 06:00:00 7,7 -13,2 36 19 49 26 S 20 0 0,0
24.01.2018 05:00:00 8,1 -12,8 37 20 47 25 S 20 0 0,0
24.01.2018 04:00:00 7,7 -9,1 35 19 44 24 S 20 0 0,0
24.01.2018 03:00:00 7,1 -9,2 31 17 42 23 S 20 0 0,0
24.01.2018 02:00:00 8,5 -11,9 35 19 43 23 S 20 0 0,0
24.01.2018 01:00:00 7,3 -10,9 28 15 34 18 S 20 0 -
24.01.2018 00:00:00 7,4 -10,8 21 11 27 15 SSE 20 0 0,0
23.01.2018 23:00:00 6,8 -10,4 9 5 18 10 SSW 20 0 0,0
23.01.2018 22:00:00 6,2 -10,4 5 3 11 6 SSW 20 0 0,0
23.01.2018 21:00:00 6,2 -10,4 8 5 16 8 SSE 20 0 0,0
23.01.2018 20:00:00 5,6 -9,7 11 6 20 11 SSE 20 0 0,0
23.01.2018 19:00:00 5,1 -8,7 9 5 16 9 SSE 20 0 -
23.01.2018 18:00:00 5,9 -9,1 8 4 14 8 SSE 20 0 0,0
23.01.2018 17:00:00 6,6 -8,1 1 1 13 7 SSW 20 29 0,0
23.01.2018 16:00:00 9,4 -6,4 1 1 6 4 W 20 60 0,0
23.01.2018 15:00:00 9,7 -7,9 2 1 8 4 WSW 20 60 0,0
23.01.2018 14:00:00 9,5 -5,1 1 1 6 4 N 20 60 0,0
23.01.2018 13:00:00 8,0 -8,0 2 1 14 8 S 20 60 -
23.01.2018 12:00:00 6,7 -7,3 9 5 14 8 S 20 41 0,0
23.01.2018 11:00:00 5,2 -7,6 5 3 12 6 S 20 0 0,0
23.01.2018 10:00:00 4,5 -8,5 7 4 14 8 S 20 0 0,0
23.01.2018 09:00:00 4,7 -8,7 6 3 13 7 SSW 20 0 0,0
23.01.2018 08:00:00 4,6 -8,8 7 4 13 7 SSW 20 0 0,0
23.01.2018 07:00:00 4,7 -9,0 8 4 14 8 SSW 20 0 -
23.01.2018 06:00:00 3,9 -6,6 4 2 16 9 WSW 20 0 0,0
23.01.2018 05:00:00 3,9 -5,8 1 1 7 4 WSW 20 0 0,0
23.01.2018 04:00:00 3,6 -6,6 2 1 8 4 W 20 0 0,0
23.01.2018 03:00:00 3,4 -6,8 4 2 8 4 SSE 20 0 0,0
23.01.2018 02:00:00 3,5 -7,3 2 1 12 7 SSE 20 0 0,0
23.01.2018 01:00:00 4,1 -7,0 5 3 16 8 SSE 20 0 -
23.01.2018 00:00:00 4,1 -5,9 9 5 19 10 SSE 20 0 0,0
22.01.2018 23:00:00 3,8 -7,0 10 5 19 10 SSE 20 0 0,0
22.01.2018 22:00:00 3,7 -8,0 9 5 17 9 SSE 20 0 0,0
22.01.2018 21:00:00 2,7 -5,9 5 3 18 10 S 20 0 0,0
22.01.2018 20:00:00 4,1 -10,7 6 3 18 10 S 20 0 0,0
22.01.2018 19:00:00 3,2 -5,2 5 3 26 14 WSW 20 0 -
22.01.2018 18:00:00 4,6 -9,5 11 6 26 14 SW 20 0 0,0
22.01.2018 17:00:00 5,4 -9,1 13 7 27 14 SSW 20 27 0,0
22.01.2018 16:00:00 7,0 -8,9 16 9 30 16 SSW 20 60 0,0
22.01.2018 15:00:00 7,8 -9,5 17 9 33 18 S 20 60 0,0
22.01.2018 14:00:00 6,9 -5,7 11 6 21 11 SSW 20 60 0,0
22.01.2018 13:00:00 8,9 -12,8 12 6 23 13 SSW 20 60 -
22.01.2018 12:00:00 8,5 -9,8 9 5 20 11 S 19 40 0,0
22.01.2018 11:00:00 7,0 -13,7 9 5 22 12 SW 20 0 0,0
22.01.2018 10:00:00 4,3 -6,5 13 7 21 11 S 20 0 0,0
22.01.2018 09:00:00 3,9 -8,7 13 7 26 14 SW 20 0 0,0
22.01.2018 08:00:00 4,7 -8,3 14 8 28 15 SSW 20 0 0,0
22.01.2018 07:00:00 4,1 -6,4 19 10 28 15 S 20 0 -
22.01.2018 06:00:00 5,8 -6,4 18 10 26 14 SSW 20 0 0,0
22.01.2018 05:00:00 5,7 -5,3 17 9 31 17 SSW 20 0 0,0
22.01.2018 04:00:00 5,4 -4,4 20 11 30 16 SSW 20 0 0,0
22.01.2018 03:00:00 4,9 -3,3 15 8 28 15 SSW 20 0 0,0
22.01.2018 02:00:00 5,1 -3,2 18 10 27 15 SSW 20 0 0,0
22.01.2018 01:00:00 5,1 -2,0 8 4 18 10 SW 20 0 -
22.01.2018 00:00:00 3,2 -0,2 10 6 16 9 S 20 0 0,0
21.01.2018 23:00:00 3,0 1,2 5 3 16 8 SW 20 0 0,0
21.01.2018 22:00:00 2,9 1,7 4 2 16 9 SW 20 0 0,0
21.01.2018 21:00:00 3,3 2,9 8 4 15 8 SSW 20 0 0,0
21.01.2018 20:00:00 3,4 3,3 7 4 14 8 SW 20 0 0,0
21.01.2018 19:00:00 3,5 3,4 6 3 16 9 S 20 0 -
21.01.2018 18:00:00 3,1 3,1 9 5 16 8 S 20 0 0,0
21.01.2018 17:00:00 3,5 3,5 4 2 17 9 WNW 20 7 0,0
21.01.2018 16:00:00 3,8 3,8 5 3 19 10 ENE 20 20 0,0
21.01.2018 15:00:00 3,3 3,3 6 3 17 9 SE 2,7 0 0,0
21.01.2018 14:00:00 3,3 3,3 3 2 27 15 SE 0,1 0 0,0
21.01.2018 13:00:00 3,4 3,4 9 5 24 13 N 18 1 -
21.01.2018 12:00:00 2,2 2,2 5 3 16 9 E 0,3 0 0,0
21.01.2018 11:00:00 1,9 1,9 8 4 21 12 W 0,2 0 0,0
21.01.2018 10:00:00 1,5 1,5 11 6 24 13 SSE 0,2 0 0,0
21.01.2018 09:00:00 1,0 1,0 6 4 37 20 S 0,8 0 0,0
21.01.2018 08:00:00 1,3 1,3 5 3 25 13 W 0,6 0 0,0
21.01.2018 07:00:00 0,9 0,9 8 4 29 16 WNW 0,4 0 -
21.01.2018 06:00:00 1,5 1,5 11 6 37 20 WNW 0,7 0 0,0
21.01.2018 05:00:00 1,0 1,0 10 5 29 16 NW 0,3 0 0,0
21.01.2018 04:00:00 1,1 1,1 11 6 30 16 NNW 0,3 0 0,0
21.01.2018 03:00:00 1,2 1,2 11 6 31 17 SSE 0,4 0 0,0
21.01.2018 02:00:00 1,2 1,2 10 5 40 21 WSW 0,3 0 0,0
21.01.2018 01:00:00 - - - - - - - - - -
21.01.2018 00:00:00 1,2 1,2 15 8 64 34 SW 0,3 0 0,0
20.01.2018 23:00:00 1,2 1,2 10 6 41 22 SSW 0,4 0 0,0
20.01.2018 22:00:00 1,1 1,1 11 6 47 25 N 0,5 0 0,0
20.01.2018 21:00:00 1,1 1,0 13 7 44 24 WNW - 0 0,0
20.01.2018 20:00:00 1,6 0,4 14 7 47 25 NW 19 0 0,0
20.01.2018 19:00:00 1,8 0,2 14 8 46 25 NW 20 0 -
20.01.2018 18:00:00 2,1 0,0 11 6 39 21 SW 20 0 0,0
20.01.2018 17:00:00 2,3 -0,1 15 8 36 20 SSW 20 6 0,0
20.01.2018 16:00:00 3,1 -0,7 9 5 39 21 SE 20 58 0,0
20.01.2018 15:00:00 3,1 -2,4 14 7 38 20 W 20 60 0,0
20.01.2018 14:00:00 2,9 -4,3 11 6 44 24 W 20 60 0,0
20.01.2018 13:00:00 2,0 -6,3 10 5 40 22 N 20 53 -
20.01.2018 12:00:00 1,3 -7,2 10 5 43 23 E 20 27 0,0
20.01.2018 11:00:00 1,3 -10,1 11 6 29 16 SSW 20 0 0,0
20.01.2018 10:00:00 1,1 -7,9 11 6 30 16 ESE 20 0 0,0
20.01.2018 09:00:00 0,6 -7,1 9 5 34 19 NW 20 0 0,0
20.01.2018 08:00:00 -0,2 -3,2 10 6 33 18 E 20 0 0,0
20.01.2018 07:00:00 -0,6 -3,4 14 8 32 18 SSE 20 0 -
20.01.2018 06:00:00 -0,8 -1,2 10 6 30 16 S 20 0 0,0
20.01.2018 05:00:00 -0,3 -0,3 11 6 30 16 WNW - 0 0,0
20.01.2018 04:00:00 -0,2 -0,2 9 5 26 14 SE 20 0 0,0
20.01.2018 03:00:00 0,1 0,1 12 6 27 15 W 0,5 0 0,0
20.01.2018 02:00:00 0,2 0,2 9 5 27 15 SE 0,5 0 0,0
20.01.2018 01:00:00 - - - - - - - - - -
20.01.2018 00:00:00 0,9 0,9 10 6 30 16 NNW 0,6 0 0,0
19.01.2018 23:00:00 0,9 0,9 9 5 29 16 NNW 0,4 0 0,0
19.01.2018 22:00:00 1,1 1,1 6 3 27 14 NNW 0,2 0 0,0
19.01.2018 21:00:00 0,8 0,8 10 5 29 16 NW 0,7 0 0,0
19.01.2018 20:00:00 0,9 0,9 6 4 29 16 WNW 0,5 0 0,0
19.01.2018 19:00:00 1,0 0,9 8 4 29 16 NE 0,6 0 -
19.01.2018 18:00:00 1,3 0,6 4 2 22 12 E 14 0 0,0
19.01.2018 17:00:00 1,9 0,7 6 3 19 10 NW 13 0 0,0
19.01.2018 16:00:00 1,8 0,9 9 5 28 15 WNW 7 1 0,0
19.01.2018 15:00:00 2,3 0,0 10 5 19 10 W 16 37 0,0
19.01.2018 14:00:00 3,4 -0,1 5 3 31 17 SSE 20 11 0,0
19.01.2018 13:00:00 1,2 0,1 10 6 25 14 NNW 14 0 -
19.01.2018 12:00:00 1,7 -0,7 8 4 21 11 NNW 17 27 0,0
19.01.2018 11:00:00 1,0 -2,4 5 3 27 15 SSE 20 0 0,0
19.01.2018 10:00:00 0,3 -2,7 5 3 12 7 SSE 20 0 0,0
19.01.2018 09:00:00 2,1 -3,4 5 3 26 14 SE 20 0 0,0
19.01.2018 08:00:00 0,5 -1,7 2 1 21 12 WSW 20 0 0,0
19.01.2018 07:00:00 2,7 -1,8 4 2 18 10 ESE 20 0 -
19.01.2018 06:00:00 1,2 -0,7 12 7 25 14 S 20 0 0,0
19.01.2018 05:00:00 1,0 -0,6 5 3 17 9 WSW 20 0 0,0
19.01.2018 04:00:00 1,6 -2,3 7 4 15 8 S 20 0 0,0
19.01.2018 03:00:00 2,1 -2,2 5 3 14 8 SSE 20 0 0,0
19.01.2018 02:00:00 1,4 -3,1 5 3 10 5 S 20 0 0,0
19.01.2018 01:00:00 2,2 -3,7 4 2 13 7 SW 20 0 -
19.01.2018 00:00:00 3,2 -4,9 8 4 16 9 S 20 0 0,0
18.01.2018 23:00:00 2,1 -6,2 4 2 14 8 S 20 0 0,0
18.01.2018 22:00:00 2,5 -5,6 5 3 15 8 SSW 20 0 0,0
18.01.2018 21:00:00 2,7 -4,9 10 5 18 10 SSW 20 0 0,0
18.01.2018 20:00:00 3,0 -5,4 8 4 14 8 SSW 20 0 0,0
18.01.2018 19:00:00 3,4 -5,5 7 4 19 10 S 20 0 -
18.01.2018 18:00:00 3,4 -6,8 12 7 20 11 SSW 20 0 0,0
18.01.2018 17:00:00 4,2 -5,8 10 5 17 9 SSW 20 18 0,0
18.01.2018 16:00:00 4,7 -6,8 10 6 18 10 SW 20 59 0,0
18.01.2018 15:00:00 6,1 -4,9 8 5 15 8 SSW 20 60 0,0
18.01.2018 14:00:00 6,6 -5,0 5 3 13 7 SSW 18 60 0,0
18.01.2018 13:00:00 6,2 -4,0 8 4 13 7 SSW 15 60 -
18.01.2018 12:00:00 5,7 -3,6 5 3 12 7 SW 20 33 0,0
18.01.2018 11:00:00 4,0 -4,2 5 3 10 6 SW 20 0 0,0
18.01.2018 10:00:00 3,6 -4,8 3 2 13 7 SSE 20 0 0,0

tt = Température de l'air
td = dewpoint
ff = Vitesse du vent
fx = gusts
dd = Direction du vent
vv = visibility
sd = Ensoleillement
rr = Quantités de précipitations

stations d'obs. à proximité